createdAt,value
2023-05-08T00:00:14.231Z,416.00
2023-05-08T00:01:13.939Z,416.00
2023-05-08T00:02:14.004Z,415.00
2023-05-08T00:03:14.109Z,414.00
2023-05-08T00:04:14.155Z,415.00
2023-05-08T00:05:14.058Z,416.00
2023-05-08T00:06:14.121Z,414.00
2023-05-08T00:07:14.098Z,412.00
2023-05-08T00:08:14.129Z,410.00
2023-05-08T00:09:14.165Z,411.00
2023-05-08T00:10:14.446Z,411.00
2023-05-08T00:11:14.227Z,414.00
2023-05-08T00:12:14.245Z,413.00
2023-05-08T00:13:14.347Z,413.00
2023-05-08T00:14:14.312Z,413.00
2023-05-08T00:15:14.360Z,413.00
2023-05-08T00:16:14.406Z,413.00
2023-05-08T00:17:14.373Z,414.00
2023-05-08T00:18:14.382Z,412.00
2023-05-08T00:19:14.387Z,413.00
2023-05-08T00:20:14.722Z,413.00
2023-05-08T00:21:14.392Z,409.00
2023-05-08T00:22:14.409Z,406.00
2023-05-08T00:23:14.421Z,405.00
2023-05-08T00:24:14.419Z,404.00
2023-05-08T00:25:14.436Z,405.00
2023-05-08T00:26:14.433Z,405.00
2023-05-08T00:27:14.439Z,407.00
2023-05-08T00:28:14.437Z,409.00
2023-05-08T00:29:14.528Z,410.00
2023-05-08T00:30:14.594Z,409.00
2023-05-08T00:31:14.445Z,410.00
2023-05-08T00:32:14.523Z,408.00
2023-05-08T00:33:14.517Z,408.00
2023-05-08T00:34:14.454Z,407.00
2023-05-08T00:35:14.465Z,406.00
2023-05-08T00:36:14.476Z,406.00
2023-05-08T00:37:14.469Z,407.00
2023-05-08T00:38:14.478Z,408.00
2023-05-08T00:39:14.471Z,407.00
2023-05-08T00:40:14.710Z,409.00
2023-05-08T00:41:14.492Z,407.00
2023-05-08T00:42:14.470Z,409.00
2023-05-08T00:43:14.459Z,408.00
2023-05-08T00:44:14.460Z,409.00
2023-05-08T00:45:14.475Z,408.00
2023-05-08T00:46:14.501Z,406.00
2023-05-08T00:47:14.446Z,407.00
2023-05-08T00:48:14.459Z,407.00
2023-05-08T00:49:14.612Z,406.00
2023-05-08T00:50:14.896Z,407.00
2023-05-08T00:51:14.461Z,408.00
2023-05-08T00:52:14.429Z,408.00
2023-05-08T00:53:14.431Z,408.00
2023-05-08T00:54:14.436Z,407.00
2023-05-08T00:55:14.431Z,408.00
2023-05-08T00:56:14.452Z,408.00
2023-05-08T00:57:14.437Z,406.00
2023-05-08T00:58:14.418Z,406.00
2023-05-08T00:59:14.418Z,405.00
2023-05-08T01:00:14.677Z,405.00
2023-05-08T01:01:14.463Z,408.00
2023-05-08T01:02:14.452Z,407.00
2023-05-08T01:03:14.577Z,407.00
2023-05-08T01:04:14.426Z,408.00
2023-05-08T01:05:14.421Z,407.00
2023-05-08T01:06:14.439Z,408.00
2023-05-08T01:07:14.419Z,405.00
2023-05-08T01:08:14.418Z,405.00
2023-05-08T01:09:14.408Z,406.00
2023-05-08T01:10:14.803Z,405.00
2023-05-08T01:11:14.431Z,408.00
2023-05-08T01:12:14.437Z,408.00
2023-05-08T01:13:14.450Z,411.00
2023-05-08T01:14:14.404Z,411.00
2023-05-08T01:15:14.407Z,411.00
2023-05-08T01:16:14.538Z,412.00
2023-05-08T01:17:14.452Z,413.00
2023-05-08T01:18:14.392Z,412.00
2023-05-08T01:19:14.412Z,410.00
2023-05-08T01:20:14.561Z,411.00
2023-05-08T01:21:14.406Z,410.00
2023-05-08T01:22:14.388Z,410.00
2023-05-08T01:23:14.396Z,409.00
2023-05-08T01:24:14.396Z,409.00
2023-05-08T01:25:14.393Z,413.00
2023-05-08T01:26:14.391Z,416.00
2023-05-08T01:27:14.398Z,412.00
2023-05-08T01:28:14.407Z,413.00
2023-05-08T01:29:14.392Z,413.00
2023-05-08T01:30:14.561Z,412.00
2023-05-08T01:31:14.401Z,414.00
2023-05-08T01:32:14.414Z,412.00
2023-05-08T01:33:14.508Z,412.00
2023-05-08T01:34:14.407Z,413.00
2023-05-08T01:35:14.395Z,410.00
2023-05-08T01:36:14.402Z,409.00
2023-05-08T01:37:14.396Z,410.00
2023-05-08T01:38:14.403Z,411.00
2023-05-08T01:39:14.401Z,413.00
2023-05-08T01:40:14.799Z,415.00
2023-05-08T01:41:14.425Z,416.00
2023-05-08T01:42:14.420Z,415.00
2023-05-08T01:43:15.124Z,414.00
2023-05-08T01:44:14.441Z,414.00
2023-05-08T01:45:14.437Z,415.00
2023-05-08T01:46:14.480Z,416.00
2023-05-08T01:47:14.425Z,416.00
2023-05-08T01:48:14.430Z,416.00
2023-05-08T01:49:14.457Z,417.00
2023-05-08T01:50:14.730Z,416.00
2023-05-08T01:51:14.425Z,415.00
2023-05-08T01:52:14.423Z,416.00
2023-05-08T01:53:14.433Z,414.00
2023-05-08T01:54:14.433Z,412.00
2023-05-08T01:55:14.441Z,412.00
2023-05-08T01:56:14.450Z,412.00
2023-05-08T01:57:14.454Z,410.00
2023-05-08T01:58:14.446Z,407.00
2023-05-08T01:59:14.467Z,408.00
2023-05-08T02:00:14.807Z,410.00
2023-05-08T02:01:14.526Z,410.00
2023-05-08T02:02:14.515Z,412.00
2023-05-08T02:03:14.504Z,412.00
2023-05-08T02:04:14.540Z,414.00
2023-05-08T02:05:14.519Z,416.00
2023-05-08T02:06:14.486Z,414.00
2023-05-08T02:07:14.483Z,415.00
2023-05-08T02:08:14.490Z,416.00
2023-05-08T02:09:14.493Z,418.00
2023-05-08T02:10:14.684Z,415.00
2023-05-08T02:11:14.500Z,415.00
2023-05-08T02:12:14.520Z,414.00
2023-05-08T02:13:14.575Z,413.00
2023-05-08T02:14:14.505Z,413.00
2023-05-08T02:15:14.523Z,413.00
2023-05-08T02:16:14.581Z,411.00
2023-05-08T02:17:14.532Z,412.00
2023-05-08T02:18:14.534Z,413.00
2023-05-08T02:19:14.533Z,413.00
2023-05-08T02:20:14.730Z,415.00
2023-05-08T02:21:14.556Z,416.00
2023-05-08T02:22:14.542Z,417.00
2023-05-08T02:23:15.146Z,417.00
2023-05-08T02:24:14.558Z,413.00
2023-05-08T02:25:14.584Z,412.00
2023-05-08T02:26:14.566Z,410.00
2023-05-08T02:27:14.560Z,411.00
2023-05-08T02:28:14.564Z,410.00
2023-05-08T02:29:14.569Z,413.00
2023-05-08T02:30:14.790Z,411.00
2023-05-08T02:31:14.576Z,410.00
2023-05-08T02:32:14.736Z,410.00
2023-05-08T02:33:14.648Z,410.00
2023-05-08T02:34:14.583Z,409.00
2023-05-08T02:35:14.595Z,409.00
2023-05-08T02:36:14.601Z,409.00
2023-05-08T02:37:14.641Z,411.00
2023-05-08T02:38:14.627Z,411.00
2023-05-08T02:39:14.634Z,412.00
2023-05-08T02:40:14.970Z,411.00
2023-05-08T02:41:14.658Z,410.00
2023-05-08T02:42:14.660Z,412.00
2023-05-08T02:43:14.674Z,413.00
2023-05-08T02:44:14.684Z,413.00
2023-05-08T02:45:15.057Z,412.00
2023-05-08T02:46:15.148Z,410.00
2023-05-08T02:47:15.108Z,407.00
2023-05-08T02:48:15.121Z,408.00
2023-05-08T02:49:15.105Z,409.00
2023-05-08T02:50:15.099Z,409.00
2023-05-08T02:51:15.100Z,406.00
2023-05-08T02:52:15.125Z,404.00
2023-05-08T02:53:15.130Z,406.00
2023-05-08T02:54:15.105Z,405.00
2023-05-08T02:55:15.126Z,405.00
2023-05-08T02:56:15.106Z,407.00
2023-05-08T02:57:15.104Z,407.00
2023-05-08T02:58:15.115Z,406.00
2023-05-08T02:59:15.102Z,407.00
2023-05-08T03:00:15.144Z,410.00
2023-05-08T03:01:15.140Z,409.00
2023-05-08T03:02:15.143Z,411.00
2023-05-08T03:03:15.367Z,411.00
2023-05-08T03:04:15.114Z,409.00
2023-05-08T03:05:15.103Z,408.00
2023-05-08T03:06:15.122Z,409.00
2023-05-08T03:07:15.105Z,410.00
2023-05-08T03:08:15.106Z,410.00
2023-05-08T03:09:15.132Z,409.00
2023-05-08T03:10:15.295Z,410.00
2023-05-08T03:11:15.098Z,409.00
2023-05-08T03:12:15.097Z,407.00
2023-05-08T03:13:15.203Z,409.00
2023-05-08T03:14:15.105Z,410.00
2023-05-08T03:15:15.099Z,410.00
2023-05-08T03:16:15.290Z,410.00
2023-05-08T03:17:15.096Z,412.00
2023-05-08T03:18:15.094Z,413.00
2023-05-08T03:19:15.106Z,414.00
2023-05-08T03:20:15.276Z,411.00
2023-05-08T03:21:15.099Z,412.00
2023-05-08T03:22:15.098Z,412.00
2023-05-08T03:23:15.105Z,413.00
2023-05-08T03:24:15.132Z,413.00
2023-05-08T03:25:15.226Z,413.00
2023-05-08T03:26:15.132Z,413.00
2023-05-08T03:27:15.143Z,414.00
2023-05-08T03:28:15.152Z,414.00
2023-05-08T03:29:15.213Z,415.00
2023-05-08T03:30:15.453Z,415.00
2023-05-08T03:31:15.283Z,416.00
2023-05-08T03:32:15.221Z,417.00
2023-05-08T03:33:15.228Z,416.00
2023-05-08T03:34:15.229Z,417.00
2023-05-08T03:35:15.234Z,420.00
2023-05-08T03:36:15.263Z,419.00
2023-05-08T03:37:15.267Z,419.00
2023-05-08T03:38:15.265Z,419.00
2023-05-08T03:39:15.283Z,418.00
2023-05-08T03:40:15.299Z,417.00
2023-05-08T03:41:15.330Z,418.00
2023-05-08T03:42:15.320Z,416.00
2023-05-08T03:43:15.341Z,416.00
2023-05-08T03:44:15.351Z,419.00
2023-05-08T03:45:15.369Z,417.00
2023-05-08T03:46:15.400Z,419.00
2023-05-08T03:47:15.393Z,420.00
2023-05-08T03:48:15.530Z,420.00
2023-05-08T03:49:15.413Z,420.00
2023-05-08T03:50:15.463Z,419.00
2023-05-08T03:51:15.436Z,419.00
2023-05-08T03:52:15.446Z,421.00
2023-05-08T03:53:15.520Z,419.00
2023-05-08T03:54:15.473Z,418.00
2023-05-08T03:55:15.497Z,418.00
2023-05-08T03:56:15.501Z,419.00
2023-05-08T03:57:15.688Z,419.00
2023-05-08T03:58:15.547Z,419.00
2023-05-08T03:59:15.556Z,420.00
2023-05-08T04:00:15.664Z,421.00
2023-05-08T04:01:15.591Z,418.00
2023-05-08T04:02:15.692Z,419.00
2023-05-08T04:03:15.751Z,420.00
2023-05-08T04:04:15.728Z,421.00
2023-05-08T04:05:15.672Z,421.00
2023-05-08T04:06:15.659Z,417.00
2023-05-08T04:07:15.662Z,415.00
2023-05-08T04:08:15.730Z,414.00
2023-05-08T04:09:15.683Z,416.00
2023-05-08T04:10:15.896Z,418.00
2023-05-08T04:11:15.704Z,418.00
2023-05-08T04:12:15.700Z,417.00
2023-05-08T04:13:15.761Z,416.00
2023-05-08T04:14:15.719Z,413.00
2023-05-08T04:15:15.890Z,414.00
2023-05-08T04:16:16.120Z,414.00
2023-05-08T04:17:16.122Z,413.00
2023-05-08T04:18:16.124Z,416.00
2023-05-08T04:19:16.158Z,417.00
2023-05-08T04:20:16.123Z,414.00
2023-05-08T04:21:16.126Z,416.00
2023-05-08T04:22:16.132Z,418.00
2023-05-08T04:23:16.128Z,418.00
2023-05-08T04:24:16.135Z,417.00
2023-05-08T04:25:16.243Z,416.00
2023-05-08T04:26:16.650Z,416.00
2023-05-08T04:27:16.135Z,413.00
2023-05-08T04:28:16.128Z,409.00
2023-05-08T04:29:16.162Z,409.00
2023-05-08T04:30:16.145Z,410.00
2023-05-08T04:31:16.211Z,411.00
2023-05-08T04:32:16.189Z,411.00
2023-05-08T04:33:16.178Z,410.00
2023-05-08T04:34:16.136Z,409.00
2023-05-08T04:35:16.453Z,411.00
2023-05-08T04:36:16.146Z,413.00
2023-05-08T04:37:16.150Z,413.00
2023-05-08T04:38:16.142Z,412.00
2023-05-08T04:39:16.150Z,413.00
2023-05-08T04:40:16.149Z,416.00
2023-05-08T04:41:16.316Z,416.00
2023-05-08T04:42:16.160Z,416.00
2023-05-08T04:43:16.152Z,420.00
2023-05-08T04:44:16.158Z,419.00
2023-05-08T04:45:16.194Z,417.00
2023-05-08T04:46:16.191Z,420.00
2023-05-08T04:47:16.180Z,419.00
2023-05-08T04:48:16.152Z,418.00
2023-05-08T04:49:16.154Z,417.00
2023-05-08T04:50:16.158Z,416.00
2023-05-08T04:51:16.171Z,417.00
2023-05-08T04:52:16.196Z,417.00
2023-05-08T04:53:16.211Z,419.00
2023-05-08T04:54:16.219Z,418.00
2023-05-08T04:55:16.239Z,416.00
2023-05-08T04:56:16.247Z,417.00
2023-05-08T04:57:16.266Z,419.00
2023-05-08T04:58:16.276Z,419.00
2023-05-08T04:59:16.348Z,422.00
2023-05-08T05:00:16.317Z,423.00
2023-05-08T05:01:16.364Z,420.00
2023-05-08T05:02:16.327Z,421.00
2023-05-08T05:03:16.422Z,421.00
2023-05-08T05:04:16.375Z,421.00
2023-05-08T05:05:16.470Z,421.00
2023-05-08T05:06:16.393Z,418.00
2023-05-08T05:07:16.415Z,416.00
2023-05-08T05:08:16.415Z,414.00
2023-05-08T05:09:16.479Z,414.00
2023-05-08T05:10:16.474Z,413.00
2023-05-08T05:11:16.484Z,415.00
2023-05-08T05:12:16.502Z,414.00
2023-05-08T05:13:16.968Z,414.00
2023-05-08T05:14:16.532Z,414.00
2023-05-08T05:15:16.552Z,411.00
2023-05-08T05:16:16.605Z,411.00
2023-05-08T05:17:16.620Z,413.00
2023-05-08T05:18:17.460Z,411.00
2023-05-08T05:19:16.633Z,411.00
2023-05-08T05:20:16.970Z,412.00
2023-05-08T05:21:16.670Z,413.00
2023-05-08T05:22:16.950Z,414.00
2023-05-08T05:23:16.720Z,416.00
2023-05-08T05:24:16.722Z,421.00
2023-05-08T05:25:16.762Z,429.00
2023-05-08T05:26:17.005Z,446.00
2023-05-08T05:27:17.521Z,461.00
2023-05-08T05:28:16.794Z,461.00
2023-05-08T05:29:16.791Z,459.00
2023-05-08T05:30:16.809Z,457.00
2023-05-08T05:31:16.900Z,457.00
2023-05-08T05:32:16.785Z,456.00
2023-05-08T05:33:16.787Z,460.00
2023-05-08T05:34:16.769Z,462.00
2023-05-08T05:35:16.745Z,466.00
2023-05-08T05:36:16.730Z,469.00
2023-05-08T05:37:16.967Z,476.00
2023-05-08T05:38:17.461Z,477.00
2023-05-08T05:39:16.729Z,475.00
2023-05-08T05:40:16.987Z,478.00
2023-05-08T05:41:16.733Z,480.00
2023-05-08T05:42:16.971Z,485.00
2023-05-08T05:43:16.849Z,484.00
2023-05-08T05:44:16.696Z,484.00
2023-05-08T05:45:16.959Z,484.00
2023-05-08T05:46:16.684Z,483.00
2023-05-08T05:47:16.777Z,481.00
2023-05-08T05:48:16.645Z,479.00
2023-05-08T05:49:16.683Z,479.00
2023-05-08T05:50:16.966Z,481.00
2023-05-08T05:51:16.627Z,484.00
2023-05-08T05:52:24.022Z,495.00
2023-05-08T05:53:16.618Z,537.00
2023-05-08T05:54:16.607Z,589.00
2023-05-08T05:55:16.966Z,576.00
2023-05-08T05:56:16.585Z,561.00
2023-05-08T05:57:16.962Z,562.00
2023-05-08T05:58:16.963Z,564.00
2023-05-08T05:59:16.572Z,561.00
2023-05-08T06:00:16.602Z,554.00
2023-05-08T06:01:16.577Z,552.00
2023-05-08T06:02:16.982Z,558.00
2023-05-08T06:03:16.626Z,563.00
2023-05-08T06:06:16.539Z,666.00
2023-05-08T06:07:17.137Z,704.00
2023-05-08T06:08:23.907Z,723.00
2023-05-08T06:09:16.529Z,732.00
2023-05-08T06:10:16.529Z,737.00
2023-05-08T06:11:19.699Z,744.00
2023-05-08T06:12:16.469Z,751.00
2023-05-08T06:13:16.549Z,757.00
2023-05-08T06:14:16.532Z,766.00
2023-05-08T06:15:16.449Z,780.00
2023-05-08T06:16:16.473Z,787.00
2023-05-08T06:17:17.419Z,788.00
2023-05-08T06:18:16.420Z,789.00
2023-05-08T06:19:16.429Z,790.00
2023-05-08T06:20:16.484Z,792.00
2023-05-08T06:21:16.412Z,800.00
2023-05-08T06:22:16.430Z,815.00
2023-05-08T06:23:16.378Z,861.00
2023-05-08T06:24:16.384Z,878.00
2023-05-08T06:25:16.477Z,889.00
2023-05-08T06:26:16.356Z,901.00
2023-05-08T06:27:16.470Z,918.00
2023-05-08T06:28:16.346Z,936.00
2023-05-08T06:29:16.349Z,956.00
2023-05-08T06:30:16.481Z,981.00
2023-05-08T06:31:16.389Z,1024.00
2023-05-08T06:32:16.333Z,1033.00
2023-05-08T06:33:16.311Z,1044.00
2023-05-08T06:34:16.391Z,1061.00
2023-05-08T06:35:16.481Z,1084.00
2023-05-08T06:36:16.524Z,1111.00
2023-05-08T06:37:16.548Z,1130.00
2023-05-08T06:38:16.639Z,1144.00
2023-05-08T06:39:16.645Z,1156.00
2023-05-08T06:40:16.704Z,1169.00
2023-05-08T06:41:16.748Z,1193.00
2023-05-08T06:42:16.782Z,1211.00
2023-05-08T06:43:17.176Z,1225.00
2023-05-08T06:44:17.240Z,1241.00
2023-05-08T06:45:17.511Z,1259.00
2023-05-08T06:46:17.175Z,1275.00
2023-05-08T06:47:20.692Z,1293.00
2023-05-08T06:48:16.954Z,1314.00
2023-05-08T06:49:16.933Z,1336.00
2023-05-08T06:50:16.947Z,1365.00
2023-05-08T06:51:16.960Z,1386.00
2023-05-08T06:52:16.986Z,1400.00
2023-05-08T06:53:16.902Z,1418.00
2023-05-08T06:54:17.115Z,1431.00
2023-05-08T06:55:16.916Z,1447.00
2023-05-08T06:56:17.017Z,1472.00
2023-05-08T06:57:17.044Z,1500.00
2023-05-08T06:58:16.895Z,1512.00
2023-05-08T06:59:16.897Z,1534.00
2023-05-08T07:00:16.893Z,1554.00
2023-05-08T07:01:17.240Z,1568.00
2023-05-08T07:02:17.316Z,1590.00
2023-05-08T07:03:17.586Z,1613.00
2023-05-08T07:04:17.160Z,1626.00
2023-05-08T07:05:17.485Z,1642.00
2023-05-08T07:06:17.255Z,1658.00
2023-05-08T07:07:17.274Z,1679.00
2023-05-08T07:08:17.184Z,1724.00
2023-05-08T07:09:17.207Z,1744.00
2023-05-08T07:10:17.205Z,1753.00
2023-05-08T07:11:16.823Z,1767.00
2023-05-08T07:12:20.094Z,1777.00
2023-05-08T07:13:17.076Z,1791.00
2023-05-08T07:14:16.844Z,1802.00
2023-05-08T07:15:25.528Z,1832.00
2023-05-08T07:16:16.847Z,1857.00
2023-05-08T07:17:16.813Z,1869.00
2023-05-08T07:18:20.435Z,1878.00
2023-05-08T07:19:16.795Z,1891.00
2023-05-08T07:20:16.777Z,1902.00
2023-05-08T07:21:16.773Z,1910.00
2023-05-08T07:22:16.807Z,1924.00
2023-05-08T07:23:17.233Z,1936.00
2023-05-08T07:24:17.068Z,1950.00
2023-05-08T07:25:16.734Z,1967.00
2023-05-08T07:26:16.888Z,1982.00
2023-05-08T07:27:16.779Z,1993.00
2023-05-08T07:28:17.002Z,2003.00
2023-05-08T07:29:16.714Z,1999.00
2023-05-08T07:30:16.878Z,1993.00
2023-05-08T07:31:16.736Z,2004.00
2023-05-08T07:32:19.892Z,2042.00
2023-05-08T07:33:17.048Z,2067.00
2023-05-08T07:34:16.692Z,2086.00
2023-05-08T07:35:17.033Z,2109.00
2023-05-08T07:36:16.667Z,2117.00
2023-05-08T07:37:16.654Z,2117.00
2023-05-08T07:38:32.244Z,2128.00
2023-05-08T07:39:17.241Z,2134.00
2023-05-08T07:41:16.685Z,2170.00
2023-05-08T07:42:16.728Z,2190.00
2023-05-08T07:43:16.644Z,2202.00
2023-05-08T07:44:17.033Z,2210.00
2023-05-08T07:45:16.819Z,2226.00
2023-05-08T07:46:17.266Z,2228.00
2023-05-08T07:47:16.694Z,2235.00
2023-05-08T07:48:20.389Z,2245.00
2023-05-08T07:49:17.208Z,2250.00
2023-05-08T07:50:19.756Z,2249.00
2023-05-08T07:51:16.554Z,2238.00
2023-05-08T07:52:16.559Z,2231.00
2023-05-08T07:53:48.821Z,2233.00
2023-05-08T07:54:20.219Z,2240.00
2023-05-08T07:55:23.953Z,2236.00
2023-05-08T07:56:19.708Z,2233.00
2023-05-08T07:57:24.415Z,2222.00
2023-05-08T07:58:24.093Z,2198.00
2023-05-08T07:59:16.503Z,2140.00
2023-05-08T08:00:19.733Z,2108.00
2023-05-08T08:01:16.474Z,2001.00
2023-05-08T08:02:16.893Z,1949.00
2023-05-08T08:03:19.863Z,1910.00
2023-05-08T08:04:16.548Z,1883.00
2023-05-08T08:05:23.908Z,1730.00
2023-05-08T08:06:16.454Z,1657.00
2023-05-08T08:07:16.438Z,1644.00
2023-05-08T08:08:16.513Z,1621.00
2023-05-08T08:09:16.430Z,1583.00
2023-05-08T08:10:16.423Z,1502.00
2023-05-08T08:11:16.401Z,1475.00
2023-05-08T08:12:16.402Z,1447.00
2023-05-08T08:13:16.773Z,1419.00
2023-05-08T08:14:16.520Z,1406.00
2023-05-08T08:15:16.511Z,1386.00
2023-05-08T08:16:16.381Z,1363.00
2023-05-08T08:17:16.472Z,1342.00
2023-05-08T08:18:16.483Z,1326.00
2023-05-08T08:19:16.519Z,1302.00
2023-05-08T08:20:16.356Z,1281.00
2023-05-08T08:21:16.340Z,1263.00
2023-05-08T08:22:16.344Z,1231.00
2023-05-08T08:23:16.330Z,1216.00
2023-05-08T08:24:16.321Z,1202.00
2023-05-08T08:25:16.520Z,1187.00
2023-05-08T08:26:16.302Z,1170.00
2023-05-08T08:27:16.399Z,1148.00
2023-05-08T08:28:16.306Z,1124.00
2023-05-08T08:29:16.650Z,1106.00
2023-05-08T08:30:18.201Z,1092.00
2023-05-08T08:31:16.572Z,1086.00
2023-05-08T08:32:16.274Z,1081.00
2023-05-08T08:33:18.807Z,1073.00
2023-05-08T08:34:16.257Z,1067.00
2023-05-08T08:35:16.896Z,1059.00
2023-05-08T08:36:16.247Z,1052.00
2023-05-08T08:37:16.239Z,1049.00
2023-05-08T08:38:16.248Z,1044.00
2023-05-08T08:39:16.248Z,1040.00
2023-05-08T08:40:16.519Z,1035.00
2023-05-08T08:41:23.639Z,1029.00
2023-05-08T08:42:48.055Z,1026.00
2023-05-08T08:43:16.184Z,1024.00
2023-05-08T08:44:31.910Z,1022.00
2023-05-08T08:45:16.768Z,1020.00
2023-05-08T08:46:16.365Z,1017.00
2023-05-08T08:47:16.236Z,1002.00
2023-05-08T08:48:16.164Z,960.00
2023-05-08T08:49:16.530Z,949.00
2023-05-08T08:50:16.165Z,922.00
2023-05-08T08:51:16.158Z,912.00
2023-05-08T08:52:16.129Z,912.00
2023-05-08T08:53:16.129Z,911.00
2023-05-08T08:54:16.543Z,916.00
2023-05-08T08:55:16.574Z,917.00
2023-05-08T08:56:16.326Z,919.00
2023-05-08T08:57:16.286Z,933.00
2023-05-08T08:58:16.540Z,953.00
2023-05-08T08:59:16.087Z,955.00
2023-05-08T09:00:16.201Z,964.00
2023-05-08T09:01:16.072Z,972.00
2023-05-08T09:02:16.073Z,974.00
2023-05-08T09:03:16.159Z,981.00
2023-05-08T09:04:16.197Z,988.00
2023-05-08T09:05:16.345Z,995.00
2023-05-08T09:06:16.301Z,997.00
2023-05-08T09:07:16.293Z,995.00
2023-05-08T09:08:16.304Z,992.00
2023-05-08T09:09:16.247Z,986.00
2023-05-08T09:10:16.534Z,984.00
2023-05-08T09:11:16.300Z,990.00
2023-05-08T09:12:16.339Z,1000.00
2023-05-08T09:13:17.422Z,1000.00
2023-05-08T09:14:16.392Z,999.00
2023-05-08T09:15:16.639Z,1000.00
2023-05-08T09:16:16.704Z,1001.00
2023-05-08T09:17:16.361Z,1004.00
2023-05-08T09:18:16.415Z,1003.00
2023-05-08T09:19:16.347Z,1001.00
2023-05-08T09:20:16.369Z,1002.00
2023-05-08T09:21:16.331Z,1001.00
2023-05-08T09:22:16.325Z,1001.00
2023-05-08T09:23:16.380Z,1006.00
2023-05-08T09:24:16.451Z,1010.00
2023-05-08T09:25:16.489Z,1016.00
2023-05-08T09:26:32.134Z,1018.00
2023-05-08T09:27:16.360Z,1022.00
2023-05-08T09:28:16.600Z,1019.00
2023-05-08T09:29:16.265Z,1017.00
2023-05-08T09:30:23.687Z,1016.00
2023-05-08T09:31:16.770Z,1023.00
2023-05-08T09:32:16.458Z,1028.00
2023-05-08T09:33:16.540Z,1033.00
2023-05-08T09:34:16.233Z,1033.00
2023-05-08T09:35:16.553Z,1028.00
2023-05-08T09:36:16.590Z,1022.00
2023-05-08T09:37:16.217Z,1020.00
2023-05-08T09:38:17.202Z,1022.00
2023-05-08T09:39:16.205Z,1028.00
2023-05-08T09:40:16.200Z,1027.00
2023-05-08T09:41:16.597Z,1029.00
2023-05-08T09:42:16.167Z,1030.00
2023-05-08T09:43:19.615Z,1035.00
2023-05-08T09:44:16.169Z,1041.00
2023-05-08T09:45:17.585Z,1055.00
2023-05-08T09:46:17.366Z,1062.00
2023-05-08T09:47:16.332Z,1063.00
2023-05-08T09:48:16.716Z,1063.00
2023-05-08T09:49:16.329Z,1065.00
2023-05-08T09:50:16.504Z,1063.00
2023-05-08T09:51:16.546Z,1062.00
2023-05-08T09:52:16.462Z,1063.00
2023-05-08T09:53:16.554Z,1073.00
2023-05-08T09:54:16.528Z,1076.00
2023-05-08T09:55:16.573Z,1076.00
2023-05-08T09:56:17.091Z,1073.00
2023-05-08T09:57:16.665Z,1074.00
2023-05-08T09:58:16.728Z,1074.00
2023-05-08T09:59:16.754Z,1074.00
2023-05-08T10:00:17.161Z,1076.00
2023-05-08T10:01:17.063Z,1076.00
2023-05-08T10:02:16.881Z,1079.00
2023-05-08T10:03:17.059Z,1085.00
2023-05-08T10:04:17.089Z,1089.00
2023-05-08T10:05:17.047Z,1093.00
2023-05-08T10:06:17.547Z,1098.00
2023-05-08T10:07:17.356Z,1100.00
2023-05-08T10:08:17.328Z,1102.00
2023-05-08T10:09:17.413Z,1104.00
2023-05-08T10:10:17.341Z,1111.00
2023-05-08T10:11:17.342Z,1114.00
2023-05-08T10:12:17.246Z,1115.00
2023-05-08T10:13:17.600Z,1111.00
2023-05-08T10:14:17.250Z,1109.00
2023-05-08T10:15:17.289Z,1112.00
2023-05-08T10:16:17.342Z,1113.00
2023-05-08T10:17:17.624Z,1113.00
2023-05-08T10:18:18.278Z,1115.00
2023-05-08T10:19:17.387Z,1111.00
2023-05-08T10:20:18.613Z,1113.00
2023-05-08T10:21:17.581Z,1115.00
2023-05-08T10:22:17.377Z,1114.00
2023-05-08T10:23:17.380Z,1119.00
2023-05-08T10:24:20.564Z,1120.00
2023-05-08T10:25:17.351Z,1119.00
2023-05-08T10:26:17.559Z,1119.00
2023-05-08T10:27:17.336Z,1106.00
2023-05-08T10:28:17.325Z,1106.00
2023-05-08T10:29:17.312Z,1102.00
2023-05-08T10:30:17.344Z,1107.00
2023-05-08T10:31:17.702Z,1123.00
2023-05-08T10:32:17.564Z,1169.00
2023-05-08T10:33:17.302Z,1172.00
2023-05-08T10:34:17.288Z,1176.00
2023-05-08T10:35:17.299Z,1176.00
2023-05-08T10:36:17.709Z,1178.00
2023-05-08T10:37:17.295Z,1182.00
2023-05-08T10:38:17.263Z,1181.00
2023-05-08T10:39:17.257Z,1183.00
2023-05-08T10:40:17.238Z,1184.00
2023-05-08T10:41:20.816Z,1185.00
2023-05-08T10:42:17.214Z,1189.00
2023-05-08T10:43:17.236Z,1190.00
2023-05-08T10:44:17.198Z,1190.00
2023-05-08T10:45:17.185Z,1193.00
2023-05-08T10:46:18.572Z,1191.00
2023-05-08T10:47:17.176Z,1189.00
2023-05-08T10:48:17.165Z,1187.00
2023-05-08T10:49:17.192Z,1190.00
2023-05-08T10:50:18.140Z,1193.00
2023-05-08T10:51:17.575Z,1196.00
2023-05-08T10:52:17.211Z,1199.00
2023-05-08T10:53:18.165Z,1203.00
2023-05-08T10:54:20.379Z,1206.00
2023-05-08T10:55:17.176Z,1209.00
2023-05-08T10:56:17.328Z,1210.00
2023-05-08T10:57:17.312Z,1208.00
2023-05-08T10:58:17.570Z,1205.00
2023-05-08T10:59:17.655Z,1199.00
2023-05-08T11:00:17.181Z,1196.00
2023-05-08T11:01:17.693Z,1198.00
2023-05-08T11:02:17.200Z,1200.00
2023-05-08T11:03:30.693Z,1203.00
2023-05-08T11:04:17.180Z,1204.00
2023-05-08T11:05:17.145Z,1204.00
2023-05-08T11:06:17.576Z,1202.00
2023-05-08T11:07:17.102Z,1197.00
2023-05-08T11:08:17.105Z,1183.00
2023-05-08T11:09:17.088Z,1167.00
2023-05-08T11:10:17.576Z,1161.00
2023-05-08T11:11:17.257Z,1159.00
2023-05-08T11:12:17.055Z,1157.00
2023-05-08T11:13:18.063Z,1157.00
2023-05-08T11:14:17.078Z,1157.00
2023-05-08T11:15:17.077Z,1155.00
2023-05-08T11:16:17.108Z,1157.00
2023-05-08T11:17:17.037Z,1157.00
2023-05-08T11:18:17.011Z,1157.00
2023-05-08T11:19:17.517Z,1160.00
2023-05-08T11:20:17.660Z,1158.00
2023-05-08T11:21:17.601Z,1158.00
2023-05-08T11:22:17.396Z,1155.00
2023-05-08T11:23:49.261Z,1158.00
2023-05-08T11:24:17.216Z,1156.00
2023-05-08T11:25:16.984Z,1155.00
2023-05-08T11:26:17.009Z,1153.00
2023-05-08T11:27:16.956Z,1152.00
2023-05-08T11:28:17.124Z,1146.00
2023-05-08T11:29:17.082Z,1138.00
2023-05-08T11:30:16.924Z,1129.00
2023-05-08T11:31:16.948Z,1124.00
2023-05-08T11:33:16.922Z,1119.00
2023-05-08T11:34:18.389Z,1120.00
2023-05-08T11:35:16.959Z,1121.00
2023-05-08T11:36:17.428Z,1125.00
2023-05-08T11:37:18.601Z,1128.00
2023-05-08T11:38:17.408Z,1132.00
2023-05-08T11:39:17.184Z,1135.00
2023-05-08T11:40:17.208Z,1137.00
2023-05-08T11:41:18.223Z,1141.00
2023-05-08T11:42:18.580Z,1148.00
2023-05-08T11:43:17.315Z,1149.00
2023-05-08T11:44:20.709Z,1152.00
2023-05-08T11:45:17.351Z,1156.00
2023-05-08T11:46:17.500Z,1158.00
2023-05-08T11:47:17.492Z,1161.00
2023-05-08T11:48:17.396Z,1157.00
2023-05-08T11:49:18.877Z,1159.00
2023-05-08T11:50:17.623Z,1159.00
2023-05-08T11:51:17.435Z,1155.00
2023-05-08T11:52:17.425Z,1156.00
2023-05-08T11:53:17.375Z,1154.00
2023-05-08T11:54:17.592Z,1151.00
2023-05-08T11:55:17.420Z,1148.00
2023-05-08T11:56:17.411Z,1156.00
2023-05-08T11:57:17.421Z,1164.00
2023-05-08T11:58:17.282Z,1166.00
2023-05-08T11:59:17.594Z,1163.00
2023-05-08T12:00:24.698Z,1156.00
2023-05-08T12:01:17.468Z,1144.00
2023-05-08T12:02:17.266Z,1134.00
2023-05-08T12:03:17.516Z,1122.00
2023-05-08T12:04:17.847Z,1112.00
2023-05-08T12:05:17.205Z,1103.00
2023-05-08T12:06:24.613Z,1098.00
2023-05-08T12:07:17.614Z,1091.00
2023-05-08T12:08:17.168Z,1086.00
2023-05-08T12:09:17.199Z,1080.00
2023-05-08T12:10:17.757Z,1076.00
2023-05-08T12:11:17.196Z,1069.00
2023-05-08T12:12:17.599Z,1055.00
2023-05-08T12:13:17.204Z,1035.00
2023-05-08T12:14:17.141Z,1028.00
2023-05-08T12:15:17.222Z,1020.00
2023-05-08T12:16:17.115Z,1013.00
2023-05-08T12:17:17.841Z,1008.00
2023-05-08T12:18:17.539Z,1001.00
2023-05-08T12:19:17.544Z,993.00
2023-05-08T12:20:18.047Z,984.00
2023-05-08T12:21:17.483Z,981.00
2023-05-08T12:22:17.814Z,975.00